LFMH METAR and TAF | Updated Today

LFMH METAR

Saint-Étienne-Bouthéon Airport

Observation time: 19 min. ago

LFMH 062000Z AUTO 35008KT 320V020 9999 OVC030 04/M01 Q1030

Need help? Read our tutorial on how to read METARs or read the parsed version below.

Saint-Étienne-Bouthéon Airport (LFMH) METAR

  • Weather conditions on Mon, 06 Feb 2023 20:00:00 +0000 (19 min. ago):
  • Present conditions: Dry
  • Clouds: Overcast sky at 914 meters
  • Visibility: Greater than 10 km
  • Wind: 350 degrees at 8 knots
  • Temperature: 4 celsius
  • Dew point: -1 celsius
  • Pressure: 1030 millibars
  • Remarks: None


Useful to know...

  • Codes: LFMH/EBU
  • Airport elevation: 1325ft
  • Municipality: Saint-Étienne/Bouthéon
  • Country: France
  • Continent: Europe
  • Wikipedia page